createdAt,value
2019-01-11T00:00:37.543Z,98919.63
2019-01-11T00:03:03.812Z,98920.64
2019-01-11T00:05:29.971Z,98913.48
2019-01-11T00:07:56.262Z,98903.16
2019-01-11T00:10:22.411Z,98914.32
2019-01-11T00:12:48.560Z,98920.30
2019-01-11T00:15:14.744Z,98921.97
2019-01-11T00:17:40.894Z,98931.14
2019-01-11T00:20:09.053Z,98947.59
2019-01-11T00:22:35.243Z,98953.27
2019-01-11T00:25:01.390Z,98957.61
2019-01-11T00:27:27.555Z,98953.12
2019-01-11T00:29:53.742Z,98973.59
2019-01-11T00:32:20.008Z,98975.42
2019-01-11T00:34:46.165Z,98981.23
2019-01-11T00:37:12.463Z,98996.56
2019-01-11T00:39:38.632Z,98995.59
2019-01-11T00:42:04.937Z,99001.57
2019-01-11T00:44:31.119Z,99010.25
2019-01-11T00:46:57.264Z,99010.91
2019-01-11T00:49:23.422Z,99012.06
2019-01-11T00:51:49.620Z,99019.73
2019-01-11T00:54:15.778Z,99016.55
2019-01-11T00:56:41.935Z,99023.22
2019-01-11T00:59:08.124Z,99023.25
2019-01-11T01:01:34.274Z,99027.89
2019-01-11T01:04:00.439Z,99031.24
2019-01-11T01:06:26.634Z,99040.91
2019-01-11T01:08:52.797Z,99031.89
2019-01-11T01:11:18.949Z,99043.72
2019-01-11T01:13:45.387Z,99050.58
2019-01-11T01:16:11.555Z,99061.58
2019-01-11T01:18:38.124Z,99060.05
2019-01-11T01:21:04.311Z,99058.20
2019-01-11T01:23:30.483Z,99060.90
2019-01-11T01:25:56.634Z,99060.55
2019-01-11T01:28:22.915Z,99061.41
2019-01-11T01:30:49.175Z,99064.24
2019-01-11T01:33:15.426Z,99067.22
2019-01-11T01:35:41.620Z,99072.23
2019-01-11T01:38:07.773Z,99070.55
2019-01-11T01:40:33.929Z,99076.55
2019-01-11T01:43:01.002Z,99079.20
2019-01-11T01:45:27.437Z,99080.53
2019-01-11T01:47:53.590Z,99088.77
2019-01-11T01:50:19.876Z,99091.96
2019-01-11T01:52:46.070Z,99085.64
2019-01-11T01:55:14.129Z,99093.69
2019-01-11T01:57:40.316Z,99096.27
2019-01-11T02:00:10.089Z,99098.80
2019-01-11T02:02:37.176Z,99090.64
2019-01-11T02:05:06.659Z,99084.70
2019-01-11T02:07:32.812Z,99095.63
2019-01-11T02:09:58.978Z,99093.27
2019-01-11T02:12:25.164Z,99088.55
2019-01-11T02:14:51.415Z,99095.45
2019-01-11T02:17:17.573Z,99092.67
2019-01-11T02:19:43.771Z,99099.04
2019-01-11T02:22:09.928Z,99101.06
2019-01-11T02:24:36.080Z,99094.20
2019-01-11T02:27:02.264Z,99102.52
2019-01-11T02:29:28.414Z,99104.27
2019-01-11T02:31:54.576Z,99107.99
2019-01-11T02:34:20.768Z,99109.00
2019-01-11T02:36:47.048Z,99111.05
2019-01-11T02:39:13.304Z,99107.40
2019-01-11T02:41:39.694Z,99113.56
2019-01-11T02:44:05.958Z,99110.66
2019-01-11T02:46:32.216Z,99108.50
2019-01-11T02:48:58.402Z,99115.59
2019-01-11T02:51:24.557Z,99114.61
2019-01-11T02:53:50.726Z,99108.56
2019-01-11T02:56:16.916Z,99110.58
2019-01-11T02:58:43.073Z,99106.42
2019-01-11T03:01:09.231Z,99109.52
2019-01-11T03:03:35.512Z,99110.92
2019-01-11T03:06:01.788Z,99117.68
2019-01-11T03:08:27.938Z,99118.84
2019-01-11T03:10:54.122Z,99122.00
2019-01-11T03:13:20.369Z,99120.53
2019-01-11T03:15:46.527Z,99125.53
2019-01-11T03:18:12.712Z,99132.64
2019-01-11T03:20:38.862Z,99138.00
2019-01-11T03:23:05.017Z,99130.32
2019-01-11T03:25:31.207Z,99144.91
2019-01-11T03:27:57.360Z,99148.23
2019-01-11T03:30:23.636Z,99146.39
2019-01-11T03:32:49.876Z,99144.19
2019-01-11T03:35:17.526Z,99147.87
2019-01-11T03:37:45.085Z,99138.92
2019-01-11T03:40:14.078Z,99141.09
2019-01-11T03:42:40.235Z,99145.95
2019-01-11T03:45:09.644Z,99150.98
2019-01-11T03:47:35.827Z,99159.72
2019-01-11T03:50:03.679Z,99155.47
2019-01-11T03:52:29.838Z,99156.53
2019-01-11T03:54:56.028Z,99165.36
2019-01-11T03:57:22.186Z,99160.81
2019-01-11T03:59:48.331Z,99162.88
2019-01-11T04:02:14.632Z,99178.80
2019-01-11T04:04:40.888Z,99174.84
2019-01-11T04:07:07.054Z,99183.08
2019-01-11T04:09:33.238Z,99181.52
2019-01-11T04:11:59.398Z,99175.02
2019-01-11T04:14:25.889Z,99184.41
2019-01-11T04:16:52.205Z,99190.20
2019-01-11T04:19:18.333Z,99198.84
2019-01-11T04:21:46.393Z,99197.22
2019-01-11T04:24:12.589Z,99201.86
2019-01-11T04:26:38.852Z,99204.58
2019-01-11T04:29:05.015Z,99213.15
2019-01-11T04:31:31.193Z,99210.24
2019-01-11T04:33:58.558Z,99216.75
2019-01-11T04:36:24.717Z,99212.95
2019-01-11T04:38:50.926Z,99225.86
2019-01-11T04:41:17.069Z,99221.17
2019-01-11T04:43:43.235Z,99227.11
2019-01-11T04:46:09.442Z,99230.17
2019-01-11T04:48:35.591Z,99236.21
2019-01-11T04:51:01.766Z,99233.41
2019-01-11T04:53:28.039Z,99234.44
2019-01-11T04:55:54.334Z,99233.09
2019-01-11T04:58:20.503Z,99234.36
2019-01-11T05:00:46.684Z,99241.47
2019-01-11T05:03:12.836Z,99247.13
2019-01-11T05:05:39.112Z,99257.58
2019-01-11T05:08:05.417Z,99264.66
2019-01-11T05:10:31.674Z,99263.98
2019-01-11T05:12:59.782Z,99259.16
2019-01-11T05:15:25.967Z,99273.03
2019-01-11T05:17:52.122Z,99268.50
2019-01-11T05:20:18.391Z,99276.69
2019-01-11T05:22:44.889Z,99278.94
2019-01-11T05:25:11.053Z,99283.88
2019-01-11T05:27:37.207Z,99287.99
2019-01-11T05:30:09.934Z,99288.31
2019-01-11T05:32:36.092Z,99296.09
2019-01-11T05:35:02.356Z,99297.15
2019-01-11T05:37:28.544Z,99298.48
2019-01-11T05:39:54.693Z,99302.32
2019-01-11T05:42:20.872Z,99300.81
2019-01-11T05:44:47.069Z,99298.36
2019-01-11T05:47:13.281Z,99301.94
2019-01-11T05:49:39.555Z,99299.56
2019-01-11T05:52:05.745Z,99316.87
2019-01-11T05:54:31.940Z,99313.06
2019-01-11T05:56:58.096Z,99316.12
2019-01-11T05:59:24.379Z,99322.55
2019-01-11T06:01:50.574Z,99329.80
2019-01-11T06:04:18.629Z,99338.30
2019-01-11T06:06:49.296Z,99348.45
2019-01-11T06:09:15.455Z,99338.31
2019-01-11T06:11:41.629Z,99348.92
2019-01-11T06:14:07.824Z,99357.12
2019-01-11T06:16:33.993Z,99353.80
2019-01-11T06:19:00.145Z,99359.77
2019-01-11T06:21:26.335Z,99365.45
2019-01-11T06:23:52.499Z,99361.48
2019-01-11T06:26:18.655Z,99362.84
2019-01-11T06:28:44.835Z,99375.41
2019-01-11T06:31:10.983Z,99378.16
2019-01-11T06:33:37.135Z,99375.03
2019-01-11T06:36:03.327Z,99382.89
2019-01-11T06:38:29.785Z,99392.83
2019-01-11T06:40:55.942Z,99390.17
2019-01-11T06:43:22.241Z,99397.17
2019-01-11T06:45:48.512Z,99401.22
2019-01-11T06:48:16.578Z,99406.61
2019-01-11T06:50:42.872Z,99417.08
2019-01-11T06:53:09.024Z,99416.83
2019-01-11T06:55:35.281Z,99416.00
2019-01-11T06:58:01.579Z,99427.73
2019-01-11T07:00:27.727Z,99434.66
2019-01-11T07:02:53.891Z,99428.34
2019-01-11T07:05:20.081Z,99423.41
2019-01-11T07:07:46.241Z,99428.37
2019-01-11T07:10:20.831Z,99435.20
2019-01-11T07:12:47.056Z,99426.41
2019-01-11T07:15:14.075Z,99425.17
2019-01-11T07:17:40.332Z,99429.18
2019-01-11T07:20:10.077Z,99422.70
2019-01-11T07:22:36.237Z,99435.80
2019-01-11T07:25:04.892Z,99435.75
2019-01-11T07:27:32.996Z,99444.55
2019-01-11T07:29:59.171Z,99449.78
2019-01-11T07:32:25.331Z,99451.42
2019-01-11T07:34:51.533Z,99461.73
2019-01-11T07:37:17.681Z,99459.02
2019-01-11T07:39:43.830Z,99451.92
2019-01-11T07:42:10.015Z,99447.00
2019-01-11T07:44:36.164Z,99445.73
2019-01-11T07:47:02.514Z,99449.91
2019-01-11T07:49:29.319Z,99447.97
2019-01-11T07:51:55.575Z,99446.03
2019-01-11T07:54:21.722Z,99437.53
2019-01-11T07:56:47.914Z,99441.09
2019-01-11T07:59:14.173Z,99436.09
2019-01-11T08:01:40.327Z,99435.36
2019-01-11T08:04:06.623Z,99440.21
2019-01-11T08:06:32.773Z,99443.37
2019-01-11T08:08:58.934Z,99449.50
2019-01-11T08:11:25.225Z,99451.75
2019-01-11T08:13:51.379Z,99447.78
2019-01-11T08:16:17.633Z,99447.73
2019-01-11T08:18:43.819Z,99455.41
2019-01-11T08:21:09.981Z,99453.11
2019-01-11T08:23:36.240Z,99458.52
2019-01-11T08:26:02.487Z,99455.05
2019-01-11T08:28:30.523Z,99447.20
2019-01-11T08:30:56.679Z,99443.59
2019-01-11T08:33:22.966Z,99440.69
2019-01-11T08:35:49.124Z,99438.07
2019-01-11T08:38:15.284Z,99438.27
2019-01-11T08:40:41.574Z,99447.60
2019-01-11T08:43:07.833Z,99456.47
2019-01-11T08:45:34.095Z,99452.11
2019-01-11T08:48:00.285Z,99457.05
2019-01-11T08:50:26.594Z,99460.00
2019-01-11T08:52:52.845Z,99464.40
2019-01-11T08:55:19.141Z,99473.39
2019-01-11T08:57:45.908Z,99467.91
2019-01-11T09:00:13.783Z,99470.64
2019-01-11T09:02:39.974Z,99467.34
2019-01-11T09:05:06.926Z,99473.70
2019-01-11T09:07:33.088Z,99482.14
2019-01-11T09:09:59.741Z,99483.42
2019-01-11T09:12:26.002Z,99477.85
2019-01-11T09:14:53.690Z,99490.20
2019-01-11T09:17:19.983Z,99488.06
2019-01-11T09:19:46.150Z,99478.35
2019-01-11T09:22:12.300Z,99486.05
2019-01-11T09:24:38.608Z,99486.98
2019-01-11T09:27:04.772Z,99484.50
2019-01-11T09:29:30.949Z,99478.49
2019-01-11T09:31:57.673Z,99485.42
2019-01-11T09:34:23.890Z,99490.70
2019-01-11T09:36:50.039Z,99500.20
2019-01-11T09:39:16.334Z,99499.63
2019-01-11T09:41:42.489Z,99495.24
2019-01-11T09:44:08.643Z,99502.09
2019-01-11T09:46:34.839Z,99498.25
2019-01-11T09:49:01.101Z,99486.55
2019-01-11T09:51:27.424Z,99490.53
2019-01-11T09:53:53.621Z,99486.31
2019-01-11T09:56:19.786Z,99500.75
2019-01-11T09:58:45.953Z,99505.20
2019-01-11T10:01:13.149Z,99517.05
2019-01-11T10:03:39.312Z,99507.56
2019-01-11T10:06:06.089Z,99503.42
2019-01-11T10:08:32.503Z,99506.94
2019-01-11T10:10:58.663Z,99503.42
2019-01-11T10:13:24.924Z,99490.41
2019-01-11T10:15:51.338Z,99492.15
2019-01-11T10:18:17.499Z,99488.68
2019-01-11T10:20:43.656Z,99474.26
2019-01-11T10:23:09.837Z,99465.92
2019-01-11T10:25:36.098Z,99467.15
2019-01-11T10:28:02.454Z,99468.27
2019-01-11T10:30:28.758Z,99455.79
2019-01-11T10:32:55.021Z,99455.84
2019-01-11T10:35:22.047Z,99450.95
2019-01-11T10:37:48.241Z,99448.88
2019-01-11T10:40:16.423Z,99444.52
2019-01-11T10:42:42.982Z,99447.00
2019-01-11T10:45:12.471Z,99448.55
2019-01-11T10:47:38.773Z,99442.98
2019-01-11T10:50:12.618Z,99452.20
2019-01-11T10:52:39.619Z,99451.48
2019-01-11T10:55:08.726Z,99448.95
2019-01-11T10:57:34.993Z,99452.58
2019-01-11T11:00:02.695Z,99451.76
2019-01-11T11:02:30.783Z,99451.23
2019-01-11T11:04:56.945Z,99437.81
2019-01-11T11:07:23.134Z,99424.63
2019-01-11T11:09:49.333Z,99436.21
2019-01-11T11:12:15.565Z,99439.07
2019-01-11T11:14:41.770Z,99429.95
2019-01-11T11:17:07.936Z,99426.41
2019-01-11T11:19:34.092Z,99439.89
2019-01-11T11:22:00.288Z,99451.20
2019-01-11T11:24:26.655Z,99443.33
2019-01-11T11:26:52.813Z,99441.35
2019-01-11T11:29:19.214Z,99440.53
2019-01-11T11:31:45.579Z,99430.91
2019-01-11T11:34:11.888Z,99442.78
2019-01-11T11:36:38.083Z,99453.90
2019-01-11T11:39:07.872Z,99455.07
2019-01-11T11:41:34.129Z,99451.89
2019-01-11T11:44:02.245Z,99462.50
2019-01-11T11:46:28.409Z,99461.41
2019-01-11T11:48:54.587Z,99459.55
2019-01-11T11:51:20.776Z,99461.63
2019-01-11T11:53:46.984Z,99461.50
2019-01-11T11:56:13.136Z,99467.42
2019-01-11T11:58:39.326Z,99466.66
2019-01-11T12:01:06.792Z,99472.33
2019-01-11T12:03:32.943Z,99472.28
2019-01-11T12:05:59.137Z,99473.98
2019-01-11T12:08:25.398Z,99480.67
2019-01-11T12:10:51.734Z,99476.06
2019-01-11T12:13:17.919Z,99476.19
2019-01-11T12:15:44.074Z,99478.30
2019-01-11T12:18:10.230Z,99474.58
2019-01-11T12:20:38.609Z,99466.03
2019-01-11T12:23:04.732Z,99467.63
2019-01-11T12:25:30.893Z,99463.26
2019-01-11T12:27:57.093Z,99464.75
2019-01-11T12:30:23.347Z,99469.90
2019-01-11T12:32:49.528Z,99471.60
2019-01-11T12:35:15.822Z,99465.42
2019-01-11T12:37:41.974Z,99469.11
2019-01-11T12:40:10.635Z,99474.38
2019-01-11T12:42:36.831Z,99470.91
2019-01-11T12:45:05.596Z,99470.70
2019-01-11T12:47:31.760Z,99484.83
2019-01-11T12:49:57.960Z,99482.74
2019-01-11T12:52:24.225Z,99476.71
2019-01-11T12:54:50.383Z,99471.45
2019-01-11T12:57:16.569Z,99476.25
2019-01-11T12:59:42.732Z,99477.77
2019-01-11T13:02:08.903Z,99491.45
2019-01-11T13:04:35.304Z,99487.05
2019-01-11T13:07:03.399Z,99488.93
2019-01-11T13:09:34.447Z,99498.20
2019-01-11T13:12:00.619Z,99493.48
2019-01-11T13:14:26.777Z,99503.88
2019-01-11T13:16:52.930Z,99505.58
2019-01-11T13:19:19.234Z,99510.06
2019-01-11T13:21:45.501Z,99512.36
2019-01-11T13:24:11.657Z,99519.88
2019-01-11T13:26:37.847Z,99519.59
2019-01-11T13:29:03.997Z,99525.36
2019-01-11T13:31:31.441Z,99527.90
2019-01-11T13:33:57.706Z,99525.73
2019-01-11T13:36:24.378Z,99531.34
2019-01-11T13:38:50.521Z,99540.72
2019-01-11T13:41:16.866Z,99536.37
2019-01-11T13:43:42.972Z,99540.19
2019-01-11T13:46:09.140Z,99535.95
2019-01-11T13:48:35.333Z,99542.31
2019-01-11T13:51:01.719Z,99542.55
2019-01-11T13:53:27.870Z,99538.06
2019-01-11T13:55:55.076Z,99539.84
2019-01-11T13:58:23.870Z,99539.83
2019-01-11T14:00:50.027Z,99552.59
2019-01-11T14:03:19.019Z,99542.65
2019-01-11T14:05:45.469Z,99544.55
2019-01-11T14:08:11.624Z,99554.61
2019-01-11T14:10:37.829Z,99555.95
2019-01-11T14:13:04.091Z,99555.36
2019-01-11T14:15:30.284Z,99559.70
2019-01-11T14:17:58.287Z,99564.08
2019-01-11T14:20:24.436Z,99567.46
2019-01-11T14:22:50.613Z,99560.22
2019-01-11T14:25:17.166Z,99560.50
2019-01-11T14:27:43.662Z,99560.44
2019-01-11T14:30:16.218Z,99562.81
2019-01-11T14:32:42.680Z,99571.72
2019-01-11T14:35:08.938Z,99567.07
2019-01-11T14:37:35.197Z,99576.39
2019-01-11T14:40:02.214Z,99581.56
2019-01-11T14:42:28.352Z,99584.39
2019-01-11T14:44:54.512Z,99590.21
2019-01-11T14:47:20.704Z,99602.61
2019-01-11T14:49:46.861Z,99605.95
2019-01-11T14:52:13.031Z,99610.14
2019-01-11T14:54:39.211Z,99613.91
2019-01-11T14:57:05.413Z,99620.24
2019-01-11T14:59:31.717Z,99617.30
2019-01-11T15:01:57.971Z,99617.54
2019-01-11T15:04:24.130Z,99619.13
2019-01-11T15:06:50.419Z,99618.18
2019-01-11T15:09:16.634Z,99621.55
2019-01-11T15:11:42.781Z,99624.94
2019-01-11T15:14:08.931Z,99632.05
2019-01-11T15:16:35.113Z,99637.31
2019-01-11T15:19:01.273Z,99627.98
2019-01-11T15:21:27.440Z,99633.19
2019-01-11T15:23:53.613Z,99642.15
2019-01-11T15:26:19.770Z,99644.52
2019-01-11T15:28:46.908Z,99646.11
2019-01-11T15:31:13.184Z,99657.39
2019-01-11T15:33:39.339Z,99655.85
2019-01-11T15:36:05.511Z,99655.22
2019-01-11T15:38:32.141Z,99655.80
2019-01-11T15:40:58.401Z,99663.99
2019-01-11T15:43:24.564Z,99662.05
2019-01-11T15:45:54.367Z,99664.02
2019-01-11T15:48:24.127Z,99664.65
2019-01-11T15:50:51.711Z,99667.59
2019-01-11T15:53:17.905Z,99674.45
2019-01-11T15:55:44.066Z,99680.41
2019-01-11T15:58:10.374Z,99680.48
2019-01-11T16:00:41.273Z,99682.50
2019-01-11T16:03:07.569Z,99679.86
2019-01-11T16:05:33.741Z,99687.26
2019-01-11T16:07:59.920Z,99689.44
2019-01-11T16:10:26.187Z,99696.08
2019-01-11T16:12:52.446Z,99703.36
2019-01-11T16:15:25.346Z,99700.38
2019-01-11T16:17:55.328Z,99705.47
2019-01-11T16:20:21.475Z,99707.27
2019-01-11T16:22:47.666Z,99714.91
2019-01-11T16:25:14.228Z,99714.27
2019-01-11T16:27:40.678Z,99720.37
2019-01-11T16:30:10.469Z,99725.69
2019-01-11T16:32:36.744Z,99736.17
2019-01-11T16:35:04.717Z,99728.97
2019-01-11T16:37:30.902Z,99732.27
2019-01-11T16:39:57.065Z,99729.60
2019-01-11T16:42:23.208Z,99729.13
2019-01-11T16:44:49.408Z,99727.73
2019-01-11T16:47:15.566Z,99739.55
2019-01-11T16:49:41.723Z,99738.48
2019-01-11T16:52:08.006Z,99744.83
2019-01-11T16:54:34.160Z,99741.03
2019-01-11T16:57:00.315Z,99751.58
2019-01-11T16:59:26.526Z,99752.94
2019-01-11T17:01:52.690Z,99749.03
2019-01-11T17:04:18.855Z,99750.52
2019-01-11T17:06:45.039Z,99747.08
2019-01-11T17:09:11.216Z,99749.83
2019-01-11T17:11:37.355Z,99746.75
2019-01-11T17:14:04.447Z,99756.64
2019-01-11T17:16:30.599Z,99759.05
2019-01-11T17:18:56.747Z,99759.50
2019-01-11T17:21:23.081Z,99757.89
2019-01-11T17:23:49.359Z,99763.80
2019-01-11T17:26:15.517Z,99753.77
2019-01-11T17:28:41.703Z,99747.97
2019-01-11T17:31:07.860Z,99756.83
2019-01-11T17:33:34.108Z,99754.86
2019-01-11T17:36:00.408Z,99751.77
2019-01-11T17:38:26.577Z,99752.91
2019-01-11T17:40:52.844Z,99759.97
2019-01-11T17:43:19.032Z,99761.39
2019-01-11T17:45:45.183Z,99765.89
2019-01-11T17:48:11.346Z,99767.45
2019-01-11T17:50:37.533Z,99768.52
2019-01-11T17:53:03.690Z,99774.03
2019-01-11T17:55:29.852Z,99770.07
2019-01-11T17:57:56.066Z,99776.23
2019-01-11T18:00:22.368Z,99784.00
2019-01-11T18:02:48.529Z,99772.99
2019-01-11T18:05:15.017Z,99785.84
2019-01-11T18:07:41.163Z,99785.95
2019-01-11T18:10:08.930Z,99793.08
2019-01-11T18:12:35.124Z,99791.76
2019-01-11T18:15:01.376Z,99797.10
2019-01-11T18:17:27.644Z,99792.34
2019-01-11T18:19:53.840Z,99805.06
2019-01-11T18:22:20.101Z,99803.02
2019-01-11T18:24:46.268Z,99800.18
2019-01-11T18:27:12.446Z,99803.20
2019-01-11T18:29:38.609Z,99812.07
2019-01-11T18:32:04.766Z,99816.83
2019-01-11T18:34:30.952Z,99812.25
2019-01-11T18:36:57.223Z,99817.64
2019-01-11T18:39:24.543Z,99827.79
2019-01-11T18:41:51.158Z,99819.09
2019-01-11T18:44:17.419Z,99824.42
2019-01-11T18:46:43.732Z,99822.72
2019-01-11T18:49:09.919Z,99822.55
2019-01-11T18:51:36.081Z,99820.73
2019-01-11T18:54:02.343Z,99825.55
2019-01-11T18:56:28.532Z,99830.59
2019-01-11T18:58:54.779Z,99828.41
2019-01-11T19:01:21.822Z,99827.02
2019-01-11T19:03:48.114Z,99828.58
2019-01-11T19:06:14.281Z,99827.70
2019-01-11T19:08:40.548Z,99834.69
2019-01-11T19:11:06.840Z,99843.76
2019-01-11T19:13:33.098Z,99839.75
2019-01-11T19:15:59.258Z,99852.03
2019-01-11T19:18:25.760Z,99848.67
2019-01-11T19:20:52.004Z,99849.37
2019-01-11T19:23:20.540Z,99849.73
2019-01-11T19:25:46.269Z,99843.97
2019-01-11T19:28:12.535Z,99846.16
2019-01-11T19:30:38.689Z,99844.35
2019-01-11T19:33:04.917Z,99841.41
2019-01-11T19:35:31.151Z,99837.95
2019-01-11T19:37:57.300Z,99835.66
2019-01-11T19:40:23.493Z,99833.58
2019-01-11T19:42:49.654Z,99839.36
2019-01-11T19:45:16.825Z,99842.64
2019-01-11T19:47:42.999Z,99837.81
2019-01-11T19:50:15.047Z,99842.41
2019-01-11T19:52:41.200Z,99836.55
2019-01-11T19:55:08.893Z,99838.33
2019-01-11T19:57:35.183Z,99840.00
2019-01-11T20:00:02.006Z,99837.22
2019-01-11T20:02:28.360Z,99841.68
2019-01-11T20:04:54.517Z,99837.78
2019-01-11T20:07:20.661Z,99839.69
2019-01-11T20:09:46.842Z,99834.22
2019-01-11T20:12:13.005Z,99829.44
2019-01-11T20:14:39.196Z,99829.53
2019-01-11T20:17:05.357Z,99828.84
2019-01-11T20:19:31.527Z,99833.58
2019-01-11T20:21:57.675Z,99832.22
2019-01-11T20:24:23.961Z,99833.24
2019-01-11T20:26:50.212Z,99827.19
2019-01-11T20:29:16.482Z,99828.45
2019-01-11T20:31:42.741Z,99825.09
2019-01-11T20:34:08.893Z,99826.70
2019-01-11T20:36:38.647Z,99833.53
2019-01-11T20:39:06.644Z,99828.94
2019-01-11T20:41:32.796Z,99821.92
2019-01-11T20:43:58.954Z,99825.52
2019-01-11T20:46:25.236Z,99821.68
2019-01-11T20:48:51.392Z,99823.20
2019-01-11T20:51:17.650Z,99819.70
2019-01-11T20:53:43.845Z,99827.94
2019-01-11T20:56:10.108Z,99817.00
2019-01-11T20:58:36.269Z,99813.16
2019-01-11T21:01:03.165Z,99811.44
2019-01-11T21:03:31.550Z,99821.83
2019-01-11T21:05:57.695Z,99820.83
2019-01-11T21:08:23.901Z,99824.90
2019-01-11T21:10:51.873Z,99822.67
2019-01-11T21:13:21.717Z,99826.95
2019-01-11T21:15:50.309Z,99822.92
2019-01-11T21:18:16.466Z,99825.14
2019-01-11T21:20:42.626Z,99819.97
2019-01-11T21:23:08.913Z,99819.45
2019-01-11T21:25:35.066Z,99815.91
2019-01-11T21:28:01.328Z,99809.65
2019-01-11T21:30:27.615Z,99812.49
2019-01-11T21:32:53.769Z,99811.69
2019-01-11T21:35:20.119Z,99815.42
2019-01-11T21:37:46.301Z,99811.31
2019-01-11T21:40:17.907Z,99808.98
2019-01-11T21:42:45.155Z,99810.31
2019-01-11T21:45:11.854Z,99810.51
2019-01-11T21:47:37.997Z,99805.68
2019-01-11T21:50:13.018Z,99805.01
2019-01-11T21:52:39.212Z,99814.81
2019-01-11T21:55:06.397Z,99818.03
2019-01-11T21:57:32.651Z,99825.42
2019-01-11T21:59:58.840Z,99829.55
2019-01-11T22:02:25.007Z,99822.64
2019-01-11T22:04:51.300Z,99822.80
2019-01-11T22:07:17.489Z,99822.64
2019-01-11T22:09:43.813Z,99829.08
2019-01-11T22:12:09.964Z,99825.53
2019-01-11T22:14:36.389Z,99820.88
2019-01-11T22:17:02.781Z,99822.62
2019-01-11T22:19:29.501Z,99832.53
2019-01-11T22:21:55.817Z,99835.19
2019-01-11T22:24:22.000Z,99831.17
2019-01-11T22:26:48.287Z,99831.34
2019-01-11T22:29:14.507Z,99832.45
2019-01-11T22:31:40.798Z,99833.25
2019-01-11T22:34:07.084Z,99838.61
2019-01-11T22:36:33.308Z,99839.88
2019-01-11T22:38:59.586Z,99845.66
2019-01-11T22:41:25.871Z,99840.21
2019-01-11T22:43:52.186Z,99837.41
2019-01-11T22:46:18.473Z,99840.59
2019-01-11T22:48:44.747Z,99846.00
2019-01-11T22:51:10.959Z,99831.69
2019-01-11T22:53:37.249Z,99826.86
2019-01-11T22:56:03.868Z,99822.78
2019-01-11T22:58:30.067Z,99823.84
2019-01-11T23:01:00.224Z,99815.00
2019-01-11T23:03:36.057Z,99814.18
2019-01-11T23:06:09.194Z,99812.81
2019-01-11T23:08:33.948Z,99814.28
2019-01-11T23:11:18.874Z,99811.17
2019-01-11T23:13:45.029Z,99818.23
2019-01-11T23:16:14.791Z,99822.34
2019-01-11T23:18:40.984Z,99830.77
2019-01-11T23:21:07.141Z,99823.73
2019-01-11T23:23:33.322Z,99833.52
2019-01-11T23:25:59.643Z,99826.04
2019-01-11T23:28:25.934Z,99817.33
2019-01-11T23:30:52.110Z,99820.41
2019-01-11T23:33:18.430Z,99826.84
2019-01-11T23:35:44.732Z,99817.98
2019-01-11T23:38:11.051Z,99819.64
2019-01-11T23:40:37.237Z,99817.37
2019-01-11T23:43:03.390Z,99815.42
2019-01-11T23:45:29.684Z,99819.34
2019-01-11T23:47:55.976Z,99817.61
2019-01-11T23:50:22.133Z,99819.63
2019-01-11T23:52:48.413Z,99820.41
2019-01-11T23:55:14.599Z,99832.53
2019-01-11T23:57:40.861Z,99837.12
